Map

Track Data

SID SEASON NUMBER BASIN SUBBASIN NAME ISO_TIME NATURE LAT LON WMO_WIND WMO_PRES WMO_AGENCY TRACK_TYPE DIST2LAND LANDFALL IFLAG USA_AGENCY USA_ATCF_ID USA_LAT USA_LON USA_RECORD USA_STATUS USA_WIND USA_PRES USA_SSHS USA_R34_NE USA_R34_SE USA_R34_SW USA_R34_NW USA_R50_NE USA_R50_SE USA_R50_SW USA_R50_NW USA_R64_NE USA_R64_SE USA_R64_SW USA_R64_NW USA_POCI USA_ROCI USA_RMW USA_EYE TOKYO_LAT TOKYO_LON TOKYO_GRADE TOKYO_WIND TOKYO_PRES TOKYO_R50_DIR TOKYO_R50_LONG TOKYO_R50_SHORT TOKYO_R30_DIR TOKYO_R30_LONG TOKYO_R30_SHORT TOKYO_LAND CMA_LAT CMA_LON CMA_CAT CMA_WIND CMA_PRES HKO_LAT HKO_LON HKO_CAT HKO_WIND HKO_PRES NEWDELHI_LAT NEWDELHI_LON NEWDELHI_GRADE NEWDELHI_WIND NEWDELHI_PRES NEWDELHI_CI NEWDELHI_DP NEWDELHI_POCI REUNION_LAT REUNION_LON REUNION_TYPE REUNION_WIND REUNION_PRES REUNION_TNUM REUNION_CI REUNION_RMW REUNION_R34_NE REUNION_R34_SE REUNION_R34_SW REUNION_R34_NW REUNION_R50_NE REUNION_R50_SE REUNION_R50_SW REUNION_R50_NW REUNION_R64_NE REUNION_R64_SE REUNION_R64_SW REUNION_R64_NW BOM_LAT BOM_LON BOM_TYPE BOM_WIND BOM_PRES BOM_TNUM BOM_CI BOM_RMW BOM_R34_NE BOM_R34_SE BOM_R34_SW BOM_R34_NW BOM_R50_NE BOM_R50_SE BOM_R50_SW BOM_R50_NW BOM_R64_NE BOM_R64_SE BOM_R64_SW BOM_R64_NW BOM_ROCI BOM_POCI BOM_EYE BOM_POS_METHOD BOM_PRES_METHOD NADI_LAT NADI_LON NADI_CAT NADI_WIND NADI_PRES WELLINGTON_LAT WELLINGTON_LON WELLINGTON_WIND WELLINGTON_PRES DS824_LAT DS824_LON DS824_STAGE DS824_WIND DS824_PRES TD9636_LAT TD9636_LON TD9636_STAGE TD9636_WIND TD9636_PRES TD9635_LAT TD9635_LON TD9635_WIND TD9635_PRES TD9635_ROCI NEUMANN_LAT NEUMANN_LON NEUMANN_CLASS NEUMANN_WIND NEUMANN_PRES MLC_LAT MLC_LON MLC_CLASS MLC_WIND MLC_PRES USA_GUST BOM_GUST BOM_GUST_PER REUNION_GUST REUNION_GUST_PER USA_SEAHGT USA_SEARAD_NE USA_SEARAD_SE USA_SEARAD_SW USA_SEARAD_NW STORM_SPEED STORM_DIR
1992048S18067 1992 11 SI MM DAVILIA 1992-02-16 12:00:00 TS -17.5000 66.6000 21 1002 reunion main 977 977 _____O________ -1 -17.5000 66.6000 2 21 1002 9.90000 1.50000 3 97
1992048S18067 1992 11 SI MM DAVILIA 1992-02-16 15:00:00 TS -17.5175 66.7600 main 997 997 _____P________ -1 -17.5175 66.7600 2 22 1001 3 90
1992048S18067 1992 11 SI MM DAVILIA 1992-02-16 18:00:00 TS -17.5000 66.9000 24 1000 reunion main 1007 1007 _____O________ -1 -17.5000 66.9000 2 24 1000 9.90000 2.00000 3 68
1992048S18067 1992 11 SI MM DAVILIA 1992-02-16 21:00:00 TS -17.4225 67.0075 main 1020 1020 _____P________ -1 -17.4225 67.0075 2 24 1000 3 44
1992048S18067 1992 11 SI MM DAVILIA 1992-02-17 00:00:00 TS -17.3000 67.1000 24 1000 reunion main 1034 1034 _____O________ -1 -17.3000 67.1000 2 24 1000 9.90000 2.00000 3 36
1992048S18067 1992 11 SI MM DAVILIA 1992-02-17 03:00:00 TS -17.1650 67.2075 main 1048 1048 _____P________ -1 -17.1650 67.2075 2 24 999 4 32
1992048S18067 1992 11 SI MM DAVILIA 1992-02-17 06:00:00 TS -17.0000 67.3000 25 999 reunion main 1066 1066 _____O________ -1 -17.0000 67.3000 2 25 999 9.90000 2.00000 4 18
1992048S18067 1992 11 SI MM DAVILIA 1992-02-17 09:00:00 TS -16.7925 67.3349 main 1075 1075 _____P________ -1 -16.7925 67.3349 2 26 998 4 13
1992048S18067 1992 11 SI MM DAVILIA 1992-02-17 12:00:00 TS -16.6000 67.4000 27 998 reunion main 1093 1093 _____O________ -1 -16.6000 67.4000 2 27 998 9.90000 2.50000 4 37
1992048S18067 1992 11 SI MM DAVILIA 1992-02-17 15:00:00 TS -16.4775 67.5850 main 1117 1117 _____P________ -1 -16.4775 67.5850 2 27 998 4 63
1992048S18067 1992 11 SI MM DAVILIA 1992-02-17 18:00:00 TS -16.4000 67.8000 27 998 reunion main 1141 1141 _____O________ -1 -16.4000 67.8000 2 27 998 9.90000 2.50000 4 68
1992048S18067 1992 11 SI MM DAVILIA 1992-02-17 21:00:00 TS -16.3350 67.9500 main 1156 1156 _____P________ -1 -16.3350 67.9500 2 27 998 3 71
1992048S18067 1992 11 SI MM DAVILIA 1992-02-18 00:00:00 TS -16.3000 68.1000 27 998 reunion main 1175 1175 _____O________ -1 -16.3000 68.1000 2 27 998 9.90000 2.50000 3 83
1992048S18067 1992 11 SI MM DAVILIA 1992-02-18 03:00:00 TS -16.2925 68.3075 main 1195 1195 _____P________ -1 -16.2925 68.3075 2 27 998 4 90
1992048S18067 1992 11 SI MM DAVILIA 1992-02-18 06:00:00 TS -16.3000 68.5000 27 998 reunion main 1214 1214 _____O________ -1 -16.3000 68.5000 2 27 998 9.90000 2.50000 3 90
1992048S18067 1992 11 SI MM DAVILIA 1992-02-18 09:00:00 TS -16.2925 68.6225 main 1224 1224 _____P________ -1 -16.2925 68.6225 2 26 998 2 90
1992048S18067 1992 11 SI MM DAVILIA 1992-02-18 12:00:00 TS -16.3000 68.7000 25 999 reunion main 1234 1234 _____O________ -1 -16.3000 68.7000 2 25 999 9.90000 2.00000 1 114
1992048S18067 1992 11 SI MM DAVILIA 1992-02-18 15:00:00 TS -16.3500 68.7575 main 1244 1239 _____P________ -1 -16.3500 68.7575 2 24 999 1 137
1992048S18067 1992 11 SI MM DAVILIA 1992-02-18 18:00:00 TS -16.4000 68.8000 24 1000 reunion main 1239 1239 _____O________ -1 -16.4000 68.8000 2 24 1000 9.90000 2.00000 1 123
1992048S18067 1992 11 SI MM DAVILIA 1992-02-18 21:00:00 TS -16.4075 68.8500 main 1249 1249 _____P________ -1 -16.4075 68.8500 2 24 1000 1 90
1992048S18067 1992 11 SI MM DAVILIA 1992-02-19 00:00:00 TS -16.4000 68.9000 24 1000 reunion main 1249 1249 _____O________ -1 -16.4000 68.9000 2 24 1000 9.90000 2.00000 1 81
1992048S18067 1992 11 SI MM DAVILIA 1992-02-19 03:00:00 TS -16.3925 68.9500 main 1259 1259 _____P________ -1 -16.3925 68.9500 2 22 1001 1 90
1992048S18067 1992 11 SI MM DAVILIA 1992-02-19 06:00:00 TS -16.4000 69.0000 21 1002 reunion main 1259 1259 _____O________ -1 -16.4000 69.0000 2 21 1002 9.90000 2.00000 1 123
1992048S18067 1992 11 SI MM DAVILIA 1992-02-19 09:00:00 TS -16.4500 69.0425 main 1259 1255 _____P________ -1 -16.4500 69.0425 2 21 1002 1 137
1992048S18067 1992 11 SI MM DAVILIA 1992-02-19 12:00:00 TS -16.5000 69.1000 21 1002 reunion main 1265 1265 _____O________ -1 -16.5000 69.1000 2 21 1002 9.90000 2.00000 2 108
1992048S18067 1992 11 SI MM DAVILIA 1992-02-19 15:00:00 TS -16.5000 69.2000 main 1275 1275 _____P________ -1 -16.5000 69.2000 2 21 1002 2 90
1992048S18067 1992 11 SI MM DAVILIA 1992-02-19 18:00:00 TS -16.5000 69.3000 21 1002 reunion main 1285 1285 _____O________ -1 -16.5000 69.3000 2 21 1002 9.90000 2.00000 2 106
1992048S18067 1992 11 SI MM DAVILIA 1992-02-19 21:00:00 TS -16.5425 69.3575 main 1295 1291 _____P________ -1 -16.5425 69.3575 2 22 1001 1 137
1992048S18067 1992 11 SI MM DAVILIA 1992-02-20 00:00:00 TS -16.6000 69.4000 24 1000 reunion main 1291 1291 _____O________ -1 -16.6000 69.4000 2 24 1000 9.90000 2.00000 1 142
1992048S18067 1992 11 SI MM DAVILIA 1992-02-20 03:00:00 TS -16.6500 69.4500 main 1301 1297 _____P________ -1 -16.6500 69.4500 2 24 999 1 137
1992048S18067 1992 11 SI MM DAVILIA 1992-02-20 06:00:00 TS -16.7000 69.5000 25 999 reunion main 1297 1297 _____O________ -1 -16.7000 69.5000 2 25 999 9.90000 2.00000 1 140
1992048S18067 1992 11 SI MM DAVILIA 1992-02-20 09:00:00 TS -16.7500 69.5425 main 1297 1293 _____P________ -1 -16.7500 69.5425 2 25 999 1 137
1992048S18067 1992 11 SI MM DAVILIA 1992-02-20 12:00:00 TS -16.8000 69.6000 25 999 reunion main 1303 1303 _____O________ -1 -16.8000 69.6000 2 25 999 9.90000 2.00000 2 125
1992048S18067 1992 11 SI MM DAVILIA 1992-02-20 15:00:00 TS -16.8425 69.6850 main 1313 1310 _____P________ -1 -16.8425 69.6850 2 25 999 2 118
1992048S18067 1992 11 SI MM DAVILIA 1992-02-20 18:00:00 TS -16.9000 69.8000 25 999 reunion main 1320 1320 _____O________ -1 -16.9000 69.8000 2 25 999 9.90000 2.00000 3 121
1992048S18067 1992 11 SI MM DAVILIA 1992-02-20 21:00:00 TS -16.9925 69.9425 main 1326 1326 _____P________ -1 -16.9925 69.9425 2 26 998 4 125
1992048S18067 1992 11 SI MM DAVILIA 1992-02-21 00:00:00 TS -17.1000 70.1000 28 997 reunion main 1343 1343 _____O________ -1 -17.1000 70.1000 2 28 997 9.90000 2.50000 3 125
1992048S18067 1992 11 SI MM DAVILIA 1992-02-21 03:00:00 TS -17.1924 70.2351 main 1350 1350 _____P________ -1 -17.1924 70.2351 2 28 997 4 125
1992048S18067 1992 11 SI MM DAVILIA 1992-02-21 06:00:00 TS -17.3000 70.4000 28 997 reunion main 1367 1367 _____O________ -1 -17.3000 70.4000 2 28 997 9.90000 2.50000 5 117
1992048S18067 1992 11 SI MM DAVILIA 1992-02-21 09:00:00 TS -17.4051 70.6650 main 1395 1395 _____P________ -1 -17.4051 70.6650 2 28 997 6 122
1992048S18067 1992 11 SI MM DAVILIA 1992-02-21 12:00:00 TS -17.6000 70.9000 28 997 reunion main 1410 1407 _____O________ -1 -17.6000 70.9000 2 28 997 9.90000 2.50000 6 151
1992048S18067 1992 11 SI MM DAVILIA 1992-02-21 15:00:00 TS -17.9700 70.9875 main 1409 1400 _____P________ -1 -17.9700 70.9875 2 28 997 8 173
1992048S18067 1992 11 SI MM DAVILIA 1992-02-21 18:00:00 TS -18.4000 71.0000 28 997 reunion main 1400 1392 _____O________ -1 -18.4000 71.0000 2 28 997 9.90000 2.50000 8 0
1992048S18067 1992 11 SI MM DAVILIA 1992-02-21 21:00:00 TS -18.7725 71.0076 main 1392 1380 _____P________ -1 -18.7725 71.0076 2 28 997 5 188
1992048S18067 1992 11 SI MM DAVILIA 1992-02-22 00:00:00 TS -18.9333 70.9333 28 997 reunion main 1380 1377 O____O______O_ jtwc_sh SH191992 -18.6000 70.8000 20 -1 -19.1000 71.0000 2 28 997 9.90000 2.50000 -18.6000 70.8000 TC 20 3 189
1992048S18067 1992 11 SI MM DAVILIA 1992-02-22 03:00:00 TS -19.0900 70.9462 main 1377 1377 P____P______P_ SH191992 -18.8000 70.9000 22 -1 -19.3800 70.9925 2 30 995 -18.8000 70.9000 TC 22 3 168
1992048S18067 1992 11 SI MM DAVILIA 1992-02-22 06:00:00 TS -19.2400 71.0000 32 994 reunion main 1386 1385 O____O______O_ jtwc_sh SH191992 -19.0000 71.0000 25 -1 -19.6000 71.0000 3 32 994 9.90000 3.00000 -19.0000 71.0000 TC 25 3 157
1992048S18067 1992 11 SI MM DAVILIA 1992-02-22 09:00:00 TS -19.3808 71.0759 main 1394 1393 P____P______P_ SH191992 -19.2000 71.1000 25 -1 -19.7425 71.0276 3 34 992 -19.2000 71.1000 TC 25 4 154
1992048S18067 1992 11 SI MM DAVILIA 1992-02-22 12:00:00 TS -19.5667 71.1667 36 991 reunion main 1402 1401 O____O______O_ jtwc_sh SH191992 -19.4000 71.2000 25 -1 -19.9000 71.1000 3 36 991 9.90000 3.00000 -19.4000 71.2000 TC 25 5 155
1992048S18067 1992 11 SI MM DAVILIA 1992-02-22 15:00:00 TS -19.7975 71.2808 main 1410 1409 P____P______P_ SH191992 -19.6000 71.3000 27 -1 -20.1925 71.2424 3 36 991 -19.6000 71.3000 TC 27 5 155
1992048S18067 1992 11 SI MM DAVILIA 1992-02-22 18:00:00 TS -20.0333 71.4000 36 991 reunion main 1419 1418 O____O______O_ jtwc_sh SH191992 -19.8000 71.4000 30 -1 -20.5000 71.4000 3 36 991 9.90000 3.00000 -19.8000 71.4000 TC 30 5 155
1992048S18067 1992 11 SI MM DAVILIA 1992-02-22 21:00:00 TS -20.2408 71.4976 main 1428 1428 P____P______P_ SH191992 -20.0000 71.5000 30 -1 -20.7224 71.4926 3 36 991 -20.0000 71.5000 TC 30 4 155
1992048S18067 1992 11 SI MM DAVILIA 1992-02-23 00:00:00 TS -20.4333 71.6000 36 991 reunion main 1438 1437 O____O______O_ jtwc_sh SH191992 -20.2000 71.6000 30 -1 -20.9000 71.6000 3 36 991 9.90000 3.00000 -20.2000 71.6000 TC 30 4 150
1992048S18067 1992 11 SI MM DAVILIA 1992-02-23 03:00:00 TS -20.6217 71.7308 main 1447 1447 P____P______P_ SH191992 -20.4000 71.7000 32 -1 -21.0650 71.7925 3 37 989 -20.4000 71.7000 TC 32 4 146
1992048S18067 1992 11 SI MM DAVILIA 1992-02-23 06:00:00 TS -20.8000 71.8667 39 988 reunion main 1468 1468 O____O______O_ jtwc_sh SH191992 -20.6000 71.8000 35 0 -21.2000 72.0000 3 39 988 9.90000 3.00000 -20.6000 71.8000 TC 35 4 145
1992048S18067 1992 11 SI MM DAVILIA 1992-02-23 09:00:00 TS -20.9692 71.9934 main 1478 1478 P____P______P_ SH191992 -20.8000 71.9000 35 0 -21.3075 72.1800 3 39 988 -20.8000 71.9000 TC 35 4 147
1992048S18067 1992 11 SI MM DAVILIA 1992-02-23 12:00:00 TS -21.1333 72.1000 39 988 reunion main 1489 1489 O____O______O_ jtwc_sh SH191992 -21.0000 72.0000 35 0 -21.4000 72.3000 3 39 988 9.90000 3.00000 -21.0000 72.0000 TC 35 4 153
1992048S18067 1992 11 SI MM DAVILIA 1992-02-23 15:00:00 TS -21.2975 72.1717 main 1500 1500 P____P______P_ SH191992 -21.2000 72.1000 35 0 -21.4925 72.3151 3 37 989 -21.2000 72.1000 TC 35 4 159
1992048S18067 1992 11 SI MM DAVILIA 1992-02-23 18:00:00 TS -21.4667 72.2333 36 991 reunion main 1501 1501 O____O______O_ jtwc_sh SH191992 -21.4000 72.2000 35 0 -21.6000 72.3000 3 36 991 9.90000 3.00000 -21.4000 72.2000 TC 35 4 159
1992048S18067 1992 11 SI MM DAVILIA 1992-02-23 21:00:00 TS -21.6450 72.3142 main 1511 1511 P____P______P_ SH191992 -21.6000 72.3000 32 -1 -21.7350 72.3425 3 33 993 -21.6000 72.3000 TC 32 4 157
1992048S18067 1992 11 SI MM DAVILIA 1992-02-24 00:00:00 TS -21.8333 72.4000 31 995 reunion main 1523 1523 O____O______O_ jtwc_sh SH191992 -21.8000 72.4000 30 -1 -21.9000 72.4000 2 31 995 9.90000 2.50000 -21.8000 72.4000 TC 30 4 158
1992048S18067 1992 11 SI MM DAVILIA 1992-02-24 03:00:00 TS -22.0283 72.4809 main 1535 1535 P____P______P_ SH191992 -22.0000 72.5000 30 -1 -22.0850 72.4426 2 28 997 -22.0000 72.5000 TC 30 4 159
1992048S18067 1992 11 SI MM DAVILIA 1992-02-24 06:00:00 TS -22.2333 72.5667 25 999 reunion main 1547 1547 O____O______O_ jtwc_sh SH191992 -22.2000 72.6000 30 -1 -22.3000 72.5000 2 25 999 9.90000 2.00000 -22.2000 72.6000 TC 30 5 159
1992048S18067 1992 11 SI MM DAVILIA 1992-02-24 09:00:00 TS -22.4600 72.6617 main 1560 1560 P____P______P_ SH191992 -22.4000 72.7000 27 -1 -22.5800 72.5849 2 24 999 -22.4000 72.7000 TC 27 5 159
1992048S18067 1992 11 SI MM DAVILIA 1992-02-24 12:00:00 TS -22.6800 72.7600 24 1000 reunion main 1573 1573 O____O______O_ jtwc_sh SH191992 -22.6000 72.8000 25 -1 -22.8000 72.7000 2 24 1000 9.90000 2.00000 -22.6000 72.8000 TC 25 4 152
1992048S18067 1992 11 SI MM DAVILIA 1992-02-24 15:00:00 TS -22.8188 72.8713 main 1585 1585 P____P______P_ SH191992 -22.8000 72.8999 25 -1 -22.8375 72.8426 2 24 1000 -22.8000 72.8999 TC 25 3 130
1992048S18067 1992 11 SI MM DAVILIA 1992-02-24 18:00:00 TS -22.8667 73.0000 24 1000 reunion main 1596 1595 O____O______O_ jtwc_sh SH191992 -23.0000 73.0000 25 -1 -22.8000 73.0000 2 24 1000 9.90000 2.00000 -23.0000 73.0000 TC 25 2 86
1992048S18067 1992 11 SI MM DAVILIA 1992-02-24 21:00:00 TS -22.7999 73.1350 main 1605 1605 _____P________ SH191992 -1 -22.7999 73.1350 2 22 1001 TC 3 76
1992048S18067 1992 11 SI MM DAVILIA 1992-02-25 00:00:00 TS -22.8000 73.3000 21 1002 reunion main 1625 1625 _____O________ -1 -22.8000 73.3000 2 21 1002 9.90000 1.50000 3 92
1992048S18067 1992 11 SI MM DAVILIA 1992-02-25 03:00:00 TS -22.8149 73.5124 main 1646 1646 _____P________ -1 -22.8149 73.5124 2 20 1002 5 90
1992048S18067 1992 11 SI MM DAVILIA 1992-02-25 06:00:00 TS -22.8000 73.8000 20 1003 reunion main 1676 1676 _____O________ -1 -22.8000 73.8000 6 20 1003 9.90000 1.50000 6 81
1992048S18067 1992 11 SI MM DAVILIA 1992-02-25 09:00:00 TS -22.7203 74.1752 main 1716 1716 _____P________ -1 -22.7203 74.1752 6 8 75
1992048S18067 1992 11 SI MM DAVILIA 1992-02-25 12:00:00 TS -22.6000 74.6000 reunion main 1756 _____O________ -1 -22.6000 74.6000 6 9.90000 8 73

About IBTrACS Database

This database is a web-friendly format of International Best Track Archive for Climate Stewardship (IBTrACS), a global best track data archive curated by NOAA dating back to 1842.

Updated: 2021-10-27